createdAt,value
2017-12-20T00:02:17.004Z,40.22
2017-12-20T00:04:44.587Z,45.22
2017-12-20T00:07:12.176Z,48.17
2017-12-20T00:09:39.764Z,40.78
2017-12-20T00:12:07.371Z,46.35
2017-12-20T00:14:34.941Z,39.53
2017-12-20T00:17:03.428Z,35.35
2017-12-20T00:19:31.753Z,42.58
2017-12-20T00:21:59.416Z,38.47
2017-12-20T00:24:26.977Z,41.80
2017-12-20T00:26:54.534Z,43.35
2017-12-20T00:29:22.113Z,35.65
2017-12-20T00:31:49.670Z,43.72
2017-12-20T00:34:17.362Z,38.05
2017-12-20T00:36:44.993Z,35.80
2017-12-20T00:39:12.579Z,33.08
2017-12-20T00:41:40.157Z,35.90
2017-12-20T00:44:07.722Z,37.45
2017-12-20T00:46:35.285Z,41.67
2017-12-20T00:49:03.627Z,31.80
2017-12-20T00:51:31.210Z,36.83
2017-12-20T00:53:58.758Z,41.90
2017-12-20T00:56:26.337Z,34.80
2017-12-20T00:58:53.897Z,33.63
2017-12-20T01:01:21.455Z,34.25
2017-12-20T01:03:49.061Z,37.88
2017-12-20T01:06:17.382Z,39.40
2017-12-20T01:08:44.963Z,35.25
2017-12-20T01:11:12.513Z,35.75
2017-12-20T01:13:40.102Z,33.08
2017-12-20T01:16:08.417Z,33.40
2017-12-20T01:18:36.053Z,41.67
2017-12-20T01:21:04.420Z,36.67
2017-12-20T01:23:32.005Z,34.53
2017-12-20T01:26:00.341Z,30.05
2017-12-20T01:28:27.909Z,34.55
2017-12-20T01:30:55.486Z,37.63
2017-12-20T01:33:23.047Z,38.72
2017-12-20T01:35:50.655Z,43.28
2017-12-20T01:38:18.210Z,39.10
2017-12-20T01:40:45.834Z,43.75
2017-12-20T01:43:13.565Z,44.10
2017-12-20T01:45:41.821Z,38.15
2017-12-20T01:48:09.416Z,47.05
2017-12-20T01:50:36.993Z,46.47
2017-12-20T01:53:04.546Z,43.83
2017-12-20T01:55:32.125Z,48.33
2017-12-20T01:58:00.455Z,49.15
2017-12-20T02:00:28.032Z,54.55
2017-12-20T02:02:55.694Z,50.15
2017-12-20T02:05:23.265Z,47.62
2017-12-20T02:07:50.855Z,48.53
2017-12-20T02:10:19.392Z,52.70
2017-12-20T02:12:46.954Z,51.40
2017-12-20T02:15:14.557Z,52.40
2017-12-20T02:17:42.129Z,50.25
2017-12-20T02:20:10.554Z,49.25
2017-12-20T02:22:38.130Z,52.25
2017-12-20T02:25:06.475Z,48.83
2017-12-20T02:27:34.125Z,44.42
2017-12-20T02:30:02.450Z,51.58
2017-12-20T02:32:30.078Z,50.40
2017-12-20T02:34:58.388Z,46.67
2017-12-20T02:37:25.951Z,44.50
2017-12-20T02:39:53.638Z,46.63
2017-12-20T02:42:21.197Z,42.72
2017-12-20T02:44:48.778Z,44.38
2017-12-20T02:47:16.330Z,55.95
2017-12-20T02:49:44.038Z,47.75
2017-12-20T02:52:12.379Z,49.53
2017-12-20T02:54:40.108Z,47.42
2017-12-20T02:57:07.654Z,51.75
2017-12-20T02:59:35.230Z,50.28
2017-12-20T03:02:02.799Z,51.50
2017-12-20T03:04:30.350Z,48.25
2017-12-20T03:06:58.015Z,49.78
2017-12-20T03:09:25.682Z,56.78
2017-12-20T03:11:53.286Z,49.35
2017-12-20T03:14:20.882Z,43.20
2017-12-20T03:16:48.469Z,50.70
2017-12-20T03:19:16.073Z,46.10
2017-12-20T03:21:43.630Z,51.03
2017-12-20T03:24:11.198Z,51.60
2017-12-20T03:26:38.760Z,46.78
2017-12-20T03:29:06.334Z,54.38
2017-12-20T03:31:34.694Z,53.25
2017-12-20T03:34:02.250Z,52.08
2017-12-20T03:36:29.806Z,52.00
2017-12-20T03:38:57.391Z,53.80
2017-12-20T03:41:25.129Z,55.75
2017-12-20T03:43:52.703Z,52.03
2017-12-20T03:46:20.292Z,55.58
2017-12-20T03:48:48.622Z,60.35
2017-12-20T03:51:16.233Z,53.92
2017-12-20T03:53:43.793Z,49.58
2017-12-20T03:56:12.143Z,53.17
2017-12-20T03:58:39.748Z,54.70
2017-12-20T04:01:08.101Z,54.83
2017-12-20T04:03:36.505Z,51.97
2017-12-20T04:06:04.849Z,54.53
2017-12-20T04:08:32.413Z,57.30
2017-12-20T04:11:00.131Z,54.55
2017-12-20T04:13:27.673Z,56.58
2017-12-20T04:15:56.078Z,49.45
2017-12-20T04:18:23.661Z,55.47
2017-12-20T04:20:51.229Z,51.05
2017-12-20T04:23:18.818Z,61.88
2017-12-20T04:25:46.367Z,58.72
2017-12-20T04:28:13.943Z,59.40
2017-12-20T04:30:41.635Z,54.53
2017-12-20T04:33:09.990Z,57.50
2017-12-20T04:35:37.554Z,58.78
2017-12-20T04:38:05.114Z,66.65
2017-12-20T04:40:32.686Z,49.08
2017-12-20T04:43:00.298Z,67.12
2017-12-20T04:45:27.880Z,58.38
2017-12-20T04:47:55.434Z,58.10
2017-12-20T04:50:23.264Z,55.70
2017-12-20T04:52:50.818Z,51.67
2017-12-20T04:55:19.158Z,54.92
2017-12-20T04:57:46.730Z,54.08
2017-12-20T05:00:14.304Z,52.70
2017-12-20T05:02:41.885Z,61.37
2017-12-20T05:05:10.413Z,63.60
2017-12-20T05:07:37.994Z,57.80
2017-12-20T05:10:05.572Z,51.00
2017-12-20T05:12:33.237Z,64.30
2017-12-20T05:15:00.806Z,55.40
2017-12-20T05:17:29.161Z,66.93
2017-12-20T05:19:56.738Z,64.65
2017-12-20T05:22:24.319Z,65.85
2017-12-20T05:24:53.687Z,73.55
2017-12-20T05:27:21.353Z,58.58
2017-12-20T05:29:48.903Z,72.78
2017-12-20T05:32:16.534Z,66.00
2017-12-20T05:34:44.103Z,73.30
2017-12-20T05:37:11.674Z,64.28
2017-12-20T05:39:39.262Z,69.80
2017-12-20T05:42:06.827Z,71.03
2017-12-20T05:44:34.439Z,72.18
2017-12-20T05:47:02.008Z,74.00
2017-12-20T05:49:29.582Z,66.47
2017-12-20T05:51:57.157Z,86.28
2017-12-20T05:54:24.754Z,67.18
2017-12-20T05:56:52.323Z,62.75
2017-12-20T05:59:20.653Z,66.15
2017-12-20T06:01:48.257Z,66.90
2017-12-20T06:04:16.598Z,63.87
2017-12-20T06:06:44.134Z,62.00
2017-12-20T06:09:11.716Z,64.93
2017-12-20T06:11:39.297Z,77.35
2017-12-20T06:14:06.965Z,68.78
2017-12-20T06:16:34.616Z,62.60
2017-12-20T06:19:02.193Z,66.55
2017-12-20T06:21:29.778Z,77.00
2017-12-20T06:23:57.343Z,57.50
2017-12-20T06:26:24.922Z,72.62
2017-12-20T06:28:53.279Z,62.85
2017-12-20T06:31:20.854Z,79.45
2017-12-20T06:33:49.201Z,67.68
2017-12-20T06:36:17.932Z,64.32
2017-12-20T06:38:47.515Z,70.07
2017-12-20T06:41:15.098Z,69.60
2017-12-20T06:43:43.446Z,63.95
2017-12-20T06:46:11.237Z,55.12
2017-12-20T06:48:38.810Z,66.55
2017-12-20T06:51:07.158Z,62.20
2017-12-20T06:53:34.745Z,60.25
2017-12-20T06:56:03.089Z,59.97
2017-12-20T06:58:30.700Z,73.40
2017-12-20T07:00:58.298Z,76.50
2017-12-20T07:03:25.887Z,64.82
2017-12-20T07:05:53.509Z,62.85
2017-12-20T07:08:21.082Z,68.32
2017-12-20T07:10:48.668Z,65.57
2017-12-20T07:13:16.254Z,67.15
2017-12-20T07:15:43.815Z,74.47
2017-12-20T07:18:11.454Z,70.05
2017-12-20T07:20:39.051Z,64.97
2017-12-20T07:23:07.432Z,65.35
2017-12-20T07:25:35.078Z,62.53
2017-12-20T07:28:02.669Z,55.55
2017-12-20T07:30:31.971Z,60.85
2017-12-20T07:33:00.294Z,68.05
2017-12-20T07:35:27.881Z,73.65
2017-12-20T07:37:55.715Z,67.37
2017-12-20T07:40:23.281Z,54.58
2017-12-20T07:42:50.858Z,52.08
2017-12-20T07:45:18.408Z,56.15
2017-12-20T07:47:46.894Z,63.65
2017-12-20T07:50:14.574Z,63.92
2017-12-20T07:52:42.193Z,55.40
2017-12-20T07:55:09.759Z,65.75
2017-12-20T07:57:37.434Z,61.03
2017-12-20T08:00:04.986Z,65.45
2017-12-20T08:02:32.547Z,58.70
2017-12-20T08:05:00.129Z,66.53
2017-12-20T08:07:27.725Z,60.90
2017-12-20T08:09:55.332Z,67.32
2017-12-20T08:12:22.959Z,67.60
2017-12-20T08:14:50.515Z,65.35
2017-12-20T08:17:18.102Z,92.90
2017-12-20T08:19:46.452Z,85.12
2017-12-20T08:22:14.113Z,64.82
2017-12-20T08:24:41.738Z,103.38
2017-12-20T08:27:09.286Z,99.07
2017-12-20T08:29:36.845Z,95.82
2017-12-20T08:32:04.438Z,70.70
2017-12-20T08:34:32.000Z,88.95
2017-12-20T08:36:59.585Z,78.43
2017-12-20T08:39:27.165Z,97.12
2017-12-20T08:41:55.574Z,108.30
2017-12-20T08:44:23.138Z,89.30
2017-12-20T08:46:50.742Z,94.10
2017-12-20T08:49:18.336Z,73.50
2017-12-20T08:51:45.898Z,78.47
2017-12-20T08:54:14.251Z,74.05
2017-12-20T08:56:41.878Z,76.07
2017-12-20T08:59:09.462Z,75.25
2017-12-20T09:01:37.186Z,95.85
2017-12-20T09:04:05.559Z,92.68
2017-12-20T09:06:33.882Z,73.22
2017-12-20T09:09:01.471Z,91.63
2017-12-20T09:11:29.036Z,68.13
2017-12-20T09:13:56.624Z,77.20
2017-12-20T09:16:24.979Z,84.62
2017-12-20T09:18:52.578Z,81.93
2017-12-20T09:21:20.179Z,84.40
2017-12-20T09:23:47.851Z,79.43
2017-12-20T09:26:15.446Z,87.43
2017-12-20T09:28:43.841Z,67.72
2017-12-20T09:31:12.266Z,85.40
2017-12-20T09:33:39.864Z,79.45
2017-12-20T09:36:07.440Z,80.60
2017-12-20T09:38:35.802Z,77.68
2017-12-20T09:41:03.380Z,67.90
2017-12-20T09:43:30.971Z,71.30
2017-12-20T09:45:58.575Z,80.73
2017-12-20T09:48:26.139Z,63.63
2017-12-20T09:50:53.750Z,65.40
2017-12-20T09:53:22.094Z,75.50
2017-12-20T09:55:49.757Z,70.63
2017-12-20T09:58:17.329Z,73.20
2017-12-20T10:00:44.898Z,84.27
2017-12-20T10:03:13.225Z,75.60
2017-12-20T10:05:40.838Z,63.17
2017-12-20T10:08:09.178Z,65.03
2017-12-20T10:10:36.804Z,69.77
2017-12-20T10:13:04.373Z,72.10
2017-12-20T10:15:31.954Z,84.43
2017-12-20T10:17:59.577Z,70.50
2017-12-20T10:20:27.131Z,86.83
2017-12-20T10:22:54.713Z,73.40
2017-12-20T10:25:23.187Z,77.37
2017-12-20T10:27:51.553Z,60.23
2017-12-20T10:30:19.143Z,75.60
2017-12-20T10:32:47.531Z,72.03
2017-12-20T10:35:15.174Z,71.40
2017-12-20T10:37:42.751Z,76.10
2017-12-20T10:40:11.061Z,71.83
2017-12-20T10:42:38.681Z,73.97
2017-12-20T10:45:07.025Z,75.72
2017-12-20T10:47:34.618Z,84.70
2017-12-20T10:50:02.939Z,72.97
2017-12-20T10:52:30.574Z,87.47
2017-12-20T10:54:58.155Z,93.53
2017-12-20T10:57:25.712Z,78.77
2017-12-20T10:59:53.301Z,79.60
2017-12-20T11:02:20.859Z,97.47
2017-12-20T11:04:48.439Z,76.77
2017-12-20T11:07:16.006Z,70.57
2017-12-20T11:09:43.576Z,76.40
2017-12-20T11:12:11.186Z,64.53
2017-12-20T11:14:38.758Z,79.27
2017-12-20T11:17:06.362Z,72.40
2017-12-20T11:19:33.922Z,79.03
2017-12-20T11:22:01.522Z,68.73
2017-12-20T11:24:29.878Z,72.77
2017-12-20T11:26:58.239Z,75.87
2017-12-20T11:29:25.863Z,80.70
2017-12-20T11:31:53.453Z,74.03
2017-12-20T11:34:21.074Z,73.83
2017-12-20T11:36:49.405Z,69.57
2017-12-20T11:39:16.985Z,70.77
2017-12-20T11:41:45.314Z,64.97
2017-12-20T11:44:12.922Z,63.67
2017-12-20T11:46:41.238Z,69.07
2017-12-20T11:49:08.794Z,70.57
2017-12-20T11:51:36.389Z,56.47
2017-12-20T11:54:03.950Z,70.60
2017-12-20T11:56:31.709Z,69.93
2017-12-20T11:58:59.255Z,67.47
2017-12-20T12:01:26.869Z,67.07
2017-12-20T12:03:54.443Z,68.23
2017-12-20T12:06:22.072Z,62.37
2017-12-20T12:08:49.653Z,60.80
2017-12-20T12:11:17.248Z,57.67
2017-12-20T12:13:45.622Z,65.40
2017-12-20T12:16:13.180Z,62.83
2017-12-20T12:18:40.768Z,58.20
2017-12-20T12:21:08.357Z,57.70
2017-12-20T12:23:36.129Z,55.27
2017-12-20T12:26:04.651Z,53.50
2017-12-20T12:28:32.210Z,60.40
2017-12-20T12:30:59.793Z,53.30
2017-12-20T12:33:27.378Z,74.73
2017-12-20T12:35:54.922Z,66.23
2017-12-20T12:38:22.461Z,60.83
2017-12-20T12:40:50.078Z,61.80
2017-12-20T12:43:17.664Z,66.23
2017-12-20T12:45:45.995Z,55.87
2017-12-20T12:48:13.585Z,60.93
2017-12-20T12:50:43.282Z,59.63
2017-12-20T12:53:10.894Z,60.27
2017-12-20T12:55:38.454Z,54.10
2017-12-20T12:58:06.050Z,60.83
2017-12-20T13:00:33.625Z,60.30
2017-12-20T13:03:01.217Z,60.37
2017-12-20T13:05:29.548Z,56.50
2017-12-20T13:07:57.123Z,64.43
2017-12-20T13:10:24.724Z,61.97
2017-12-20T13:12:52.291Z,56.50
2017-12-20T13:15:20.166Z,53.00
2017-12-20T13:17:48.500Z,51.63
2017-12-20T13:20:16.352Z,55.43
2017-12-20T13:22:43.949Z,51.20
2017-12-20T13:25:11.515Z,55.10
2017-12-20T13:27:39.148Z,53.83
2017-12-20T13:30:06.718Z,54.80
2017-12-20T13:32:34.302Z,55.57
2017-12-20T13:35:02.641Z,54.17
2017-12-20T13:37:30.226Z,49.80
2017-12-20T13:39:57.789Z,55.13
2017-12-20T13:42:25.654Z,45.40
2017-12-20T13:44:53.237Z,52.80
2017-12-20T13:47:20.841Z,50.17
2017-12-20T13:49:48.394Z,49.63
2017-12-20T13:52:15.967Z,47.93
2017-12-20T13:54:43.797Z,45.50
2017-12-20T13:57:11.422Z,51.90
2017-12-20T13:59:39.019Z,51.10
2017-12-20T14:02:09.920Z,53.33
2017-12-20T14:04:37.486Z,52.73
2017-12-20T14:07:05.088Z,49.10
2017-12-20T14:09:33.469Z,42.20
2017-12-20T14:12:02.035Z,43.50
2017-12-20T14:14:29.761Z,48.87
2017-12-20T14:16:58.174Z,45.30
2017-12-20T14:19:25.956Z,43.77
2017-12-20T14:21:53.557Z,54.67
2017-12-20T14:24:21.214Z,45.90
2017-12-20T14:26:49.571Z,40.53
2017-12-20T14:29:17.164Z,51.10
2017-12-20T14:31:45.602Z,39.90
2017-12-20T14:34:13.203Z,47.63
2017-12-20T14:36:40.790Z,41.20
2017-12-20T14:39:08.454Z,43.63
2017-12-20T14:41:36.034Z,43.27
2017-12-20T14:44:03.607Z,40.93
2017-12-20T14:46:31.161Z,35.83
2017-12-20T14:48:58.728Z,40.20
2017-12-20T14:51:26.380Z,38.27
2017-12-20T14:53:53.918Z,36.73
2017-12-20T14:56:21.483Z,33.80
2017-12-20T14:58:49.047Z,33.57
2017-12-20T15:01:16.620Z,34.30
2017-12-20T15:03:44.178Z,37.30
2017-12-20T15:06:11.753Z,44.27
2017-12-20T15:08:39.325Z,36.43
2017-12-20T15:11:06.930Z,40.47
2017-12-20T15:13:34.486Z,37.03
2017-12-20T15:16:02.814Z,41.03
2017-12-20T15:18:30.441Z,37.57
2017-12-20T15:20:58.795Z,30.43
2017-12-20T15:23:26.410Z,36.20
2017-12-20T15:25:53.970Z,34.73
2017-12-20T15:28:21.598Z,35.93
2017-12-20T15:30:49.906Z,33.70
2017-12-20T15:33:17.569Z,41.27
2017-12-20T15:35:45.491Z,42.37
2017-12-20T15:38:13.079Z,41.80
2017-12-20T15:40:41.287Z,42.97
2017-12-20T15:43:08.862Z,34.95
2017-12-20T15:45:36.503Z,39.13
2017-12-20T15:48:04.113Z,45.37
2017-12-20T15:50:32.222Z,42.70
2017-12-20T15:52:59.775Z,37.50
2017-12-20T15:55:28.142Z,36.50
2017-12-20T15:57:56.475Z,39.83
2017-12-20T16:00:24.024Z,35.90
2017-12-20T16:02:51.708Z,46.83
2017-12-20T16:05:19.397Z,39.37
2017-12-20T16:07:47.770Z,34.90
2017-12-20T16:10:15.330Z,36.97
2017-12-20T16:12:42.979Z,36.50
2017-12-20T16:15:11.306Z,42.60
2017-12-20T16:17:39.640Z,39.00
2017-12-20T16:20:07.326Z,40.20
2017-12-20T16:22:34.921Z,36.70
2017-12-20T16:25:02.494Z,39.13
2017-12-20T16:27:30.093Z,36.60
2017-12-20T16:29:57.649Z,47.77
2017-12-20T16:32:25.326Z,37.13
2017-12-20T16:34:53.704Z,45.53
2017-12-20T16:37:21.317Z,40.23
2017-12-20T16:39:48.989Z,43.80
2017-12-20T16:42:16.581Z,46.23
2017-12-20T16:44:44.301Z,42.87
2017-12-20T16:47:11.899Z,46.97
2017-12-20T16:49:39.553Z,43.33
2017-12-20T16:52:08.137Z,48.60
2017-12-20T16:54:35.986Z,44.27
2017-12-20T16:57:03.558Z,47.87
2017-12-20T16:59:31.130Z,43.13
2017-12-20T17:01:58.755Z,45.03
2017-12-20T17:04:26.368Z,46.47
2017-12-20T17:06:54.879Z,59.00
2017-12-20T17:09:22.437Z,50.70
2017-12-20T17:11:50.918Z,52.57
2017-12-20T17:14:18.528Z,50.43
2017-12-20T17:16:46.866Z,54.03
2017-12-20T17:19:15.225Z,42.80
2017-12-20T17:21:42.801Z,39.67
2017-12-20T17:24:11.310Z,49.57
2017-12-20T17:26:38.904Z,44.77
2017-12-20T17:29:06.450Z,46.07
2017-12-20T17:31:34.061Z,50.23
2017-12-20T17:34:01.678Z,41.40
2017-12-20T17:36:29.296Z,45.67
2017-12-20T17:38:57.653Z,42.07
2017-12-20T17:41:25.243Z,45.47
2017-12-20T17:43:53.717Z,44.23
2017-12-20T17:46:21.356Z,40.17
2017-12-20T17:48:48.953Z,43.40
2017-12-20T17:51:17.525Z,35.97
2017-12-20T17:53:45.117Z,46.60
2017-12-20T17:56:12.699Z,50.17
2017-12-20T17:58:40.295Z,40.73
2017-12-20T18:01:08.156Z,35.97
2017-12-20T18:03:35.782Z,37.77
2017-12-20T18:06:03.812Z,35.20
2017-12-20T18:08:32.089Z,31.67
2017-12-20T18:11:06.178Z,34.43
2017-12-20T18:13:34.547Z,38.40
2017-12-20T18:16:02.848Z,26.90
2017-12-20T18:18:30.453Z,33.60
2017-12-20T18:20:58.716Z,34.00
2017-12-20T18:23:26.428Z,43.97
2017-12-20T18:25:54.799Z,30.63
2017-12-20T18:28:22.498Z,33.27
2017-12-20T18:30:50.165Z,40.87
2017-12-20T18:33:17.870Z,38.23
2017-12-20T18:35:45.463Z,31.40
2017-12-20T18:38:13.068Z,30.67
2017-12-20T18:40:40.643Z,44.93
2017-12-20T18:43:08.221Z,40.97
2017-12-20T18:45:36.571Z,32.57
2017-12-20T18:48:04.921Z,44.70
2017-12-20T18:50:32.533Z,37.03
2017-12-20T18:53:11.401Z,38.93
2017-12-20T18:55:39.061Z,46.43
2017-12-20T18:58:06.723Z,38.87
2017-12-20T19:00:34.540Z,45.50
2017-12-20T19:03:02.199Z,37.60
2017-12-20T19:05:31.026Z,37.30
2017-12-20T19:07:58.988Z,35.90
2017-12-20T19:10:26.971Z,29.65
2017-12-20T19:12:54.662Z,28.63
2017-12-20T19:15:22.283Z,30.67
2017-12-20T19:17:50.605Z,34.73
2017-12-20T19:20:18.289Z,30.63
2017-12-20T19:22:45.874Z,28.63
2017-12-20T19:25:14.267Z,28.30
2017-12-20T19:27:41.891Z,26.20
2017-12-20T19:30:09.793Z,23.67
2017-12-20T19:32:37.478Z,26.13
2017-12-20T19:35:05.194Z,26.50
2017-12-20T19:37:33.093Z,22.30
2017-12-20T19:40:00.904Z,22.80
2017-12-20T19:42:28.622Z,26.27
2017-12-20T19:44:57.802Z,20.53
2017-12-20T19:47:25.353Z,22.63
2017-12-20T19:49:53.061Z,22.37
2017-12-20T19:52:20.663Z,24.97
2017-12-20T19:54:48.282Z,21.60
2017-12-20T19:57:16.829Z,21.57
2017-12-20T19:59:46.845Z,24.97
2017-12-20T20:02:14.425Z,24.87
2017-12-20T20:04:42.034Z,19.53
2017-12-20T20:07:11.324Z,18.50
2017-12-20T20:09:39.073Z,20.00
2017-12-20T20:12:07.451Z,24.17
2017-12-20T20:14:37.538Z,18.70
2017-12-20T20:17:05.273Z,23.10
2017-12-20T20:19:33.847Z,19.08
2017-12-20T20:22:01.500Z,22.77
2017-12-20T20:24:29.157Z,22.83
2017-12-20T20:26:57.513Z,17.80
2017-12-20T20:29:25.950Z,21.57
2017-12-20T20:31:53.716Z,22.97
2017-12-20T20:34:21.729Z,24.80
2017-12-20T20:36:49.352Z,26.40
2017-12-20T20:39:16.950Z,20.33
2017-12-20T20:41:44.615Z,27.37
2017-12-20T20:44:12.865Z,22.03
2017-12-20T20:46:41.391Z,21.20
2017-12-20T20:49:09.037Z,26.07
2017-12-20T20:51:36.821Z,24.93
2017-12-20T20:54:04.451Z,23.43
2017-12-20T20:56:32.845Z,24.27
2017-12-20T20:59:00.483Z,26.03
2017-12-20T21:01:28.058Z,25.40
2017-12-20T21:03:55.712Z,23.40
2017-12-20T21:06:24.109Z,26.20
2017-12-20T21:08:51.670Z,24.50
2017-12-20T21:11:19.306Z,23.23
2017-12-20T21:13:47.058Z,27.97
2017-12-20T21:16:14.714Z,22.10
2017-12-20T21:18:42.414Z,29.63
2017-12-20T21:21:10.041Z,27.57
2017-12-20T21:23:37.638Z,28.43
2017-12-20T21:26:05.423Z,25.37
2017-12-20T21:28:33.071Z,22.97
2017-12-20T21:31:01.495Z,25.50
2017-12-20T21:33:29.090Z,23.23
2017-12-20T21:35:56.849Z,22.57
2017-12-20T21:38:24.480Z,21.60
2017-12-20T21:40:52.409Z,21.80
2017-12-20T21:43:21.016Z,22.80
2017-12-20T21:45:48.687Z,25.60
2017-12-20T21:48:16.280Z,31.20
2017-12-20T21:50:44.089Z,20.13
2017-12-20T21:53:11.721Z,20.40
2017-12-20T21:55:39.556Z,23.37
2017-12-20T21:58:08.247Z,24.60
2017-12-20T22:00:36.019Z,26.50
2017-12-20T22:03:03.585Z,25.40
2017-12-20T22:05:31.273Z,23.90
2017-12-20T22:07:58.872Z,26.30
2017-12-20T22:10:27.275Z,23.67
2017-12-20T22:12:54.867Z,23.07
2017-12-20T22:15:22.449Z,22.97
2017-12-20T22:17:50.030Z,21.00
2017-12-20T22:20:17.635Z,23.70
2017-12-20T22:22:45.218Z,22.63
2017-12-20T22:25:12.862Z,28.40
2017-12-20T22:27:40.413Z,22.17
2017-12-20T22:30:08.057Z,21.50
2017-12-20T22:32:36.393Z,19.50
2017-12-20T22:35:03.974Z,18.73
2017-12-20T22:37:31.558Z,21.05
2017-12-20T22:40:00.018Z,28.53
2017-12-20T22:42:27.586Z,25.60
2017-12-20T22:44:55.253Z,19.63
2017-12-20T22:47:22.809Z,18.23
2017-12-20T22:49:50.441Z,21.97
2017-12-20T22:52:17.989Z,20.50
2017-12-20T22:54:46.428Z,18.80
2017-12-20T22:57:14.000Z,18.93
2017-12-20T22:59:42.412Z,19.87
2017-12-20T23:02:09.997Z,18.50
2017-12-20T23:04:37.574Z,19.10
2017-12-20T23:07:05.121Z,17.43
2017-12-20T23:09:32.717Z,19.60
2017-12-20T23:12:00.436Z,18.93
2017-12-20T23:14:28.042Z,18.93
2017-12-20T23:16:55.610Z,18.20
2017-12-20T23:19:23.996Z,14.90
2017-12-20T23:21:52.364Z,18.40
2017-12-20T23:24:20.768Z,17.30
2017-12-20T23:26:49.165Z,22.00
2017-12-20T23:29:16.741Z,15.60
2017-12-20T23:31:44.403Z,23.13
2017-12-20T23:34:12.234Z,18.90
2017-12-20T23:36:40.742Z,17.77
2017-12-20T23:39:08.376Z,16.10
2017-12-20T23:41:35.954Z,19.00
2017-12-20T23:44:04.354Z,22.90
2017-12-20T23:46:31.927Z,18.43
2017-12-20T23:49:00.026Z,21.77
2017-12-20T23:51:27.610Z,21.53
2017-12-20T23:53:55.207Z,19.37
2017-12-20T23:56:22.788Z,23.70
2017-12-20T23:58:50.466Z,18.07
